Time;durP1;ratioP1;P1;durP2;ratioP2;P2;SDS_P1;SDS_P2;PMS_P1;PMS_P2;Temp;Humidity;BMP_temperature;BMP_pressure;BME280_temperature;BME280_humidity;BME280_pressure;Samples;Min_cycle;Max_cycle;Signal;HPM_P1;HPM_P2
2023/08/23 00:01:26;;;;;;;4.57;3.67;;;;;;;;;;5044923;28;20447;-83
2023/08/23 00:03:52;;;;;;;4.50;3.70;;;;;;;;;;5023191;28;20396;-83
2023/08/23 00:06:19;;;;;;;5.00;3.50;;;;;;;;;;5039420;28;20770;-83
2023/08/23 00:08:45;;;;;;;4.40;3.80;;;;;;;;;;5022891;28;20407;-83
2023/08/23 00:11:11;;;;;;;4.18;3.40;;;;;;;;;;5044659;28;20919;-84
2023/08/23 00:13:37;;;;;;;4.55;3.50;;;;;;;;;;5008640;28;20924;-83
2023/08/23 00:16:03;;;;;;;5.10;3.50;;;;;;;;;;5046251;28;20420;-83
2023/08/23 00:18:29;;;;;;;4.90;3.67;;;;;;;;;;5043663;28;20428;-83
2023/08/23 00:20:55;;;;;;;4.70;3.73;;;;;;;;;;5040835;28;20406;-83
2023/08/23 00:23:21;;;;;;;4.03;3.63;;;;;;;;;;5040404;28;20397;-83
2023/08/23 00:25:48;;;;;;;3.90;3.50;;;;;;;;;;5008070;28;20462;-83
2023/08/23 00:28:15;;;;;;;5.72;3.60;;;;;;;;;;5041613;28;20410;-83
2023/08/23 00:30:52;;;;;;;4.47;3.55;;;;;;;;;;5018935;28;20415;-83
2023/08/23 00:33:18;;;;;;;3.70;3.40;;;;;;;;;;5005881;28;20442;-83
2023/08/23 00:35:45;;;;;;;4.30;3.60;;;;;;;;;;5042613;28;20406;-84
2023/08/23 00:38:11;;;;;;;6.57;3.60;;;;;;;;;;5044120;28;20393;-83
2023/08/23 00:40:37;;;;;;;5.07;3.78;;;;;;;;;;5017049;28;20413;-84
2023/08/23 00:43:06;;;;;;;4.75;3.78;;;;;;;;;;5044601;28;20425;-83
2023/08/23 00:45:34;;;;;;;4.75;3.75;;;;;;;;;;5027641;28;20394;-83
2023/08/23 00:48:00;;;;;;;5.38;3.90;;;;;;;;;;5021997;28;20407;-83
2023/08/23 00:50:26;;;;;;;4.65;3.90;;;;;;;;;;5040830;28;20404;-83
2023/08/23 00:52:52;;;;;;;5.97;4.05;;;;;;;;;;5040589;28;21047;-83
2023/08/23 00:55:19;;;;;;;4.43;4.03;;;;;;;;;;5040106;28;20490;-84
2023/08/23 00:57:47;;;;;;;7.03;4.40;;;;;;;;;;5016696;28;21040;-83
2023/08/23 01:00:14;;;;;;;5.53;4.38;;;;;;;;;;5007072;28;20895;-83
2023/08/23 01:02:40;;;;;;;5.45;4.50;;;;;;;;;;5041699;28;20401;-83
2023/08/23 01:05:06;;;;;;;6.03;4.50;;;;;;;;;;5026856;28;20516;-83
2023/08/23 01:08:00;;;;;;;6.80;4.68;;;;;;;;;;5004025;28;20452;-83
2023/08/23 01:10:29;;;;;;;5.97;4.90;;;;;;;;;;5043466;28;20445;-83
2023/08/23 01:12:59;;;;;;;6.53;4.80;;;;;;;;;;5033415;28;20431;-83
2023/08/23 01:15:26;;;;;;;5.40;4.90;;;;;;;;;;5041521;28;20498;-83
2023/08/23 01:17:53;;;;;;;4.93;4.45;;;;;;;;;;5010513;28;20427;-83
2023/08/23 01:20:21;;;;;;;5.43;4.10;;;;;;;;;;5043276;28;21573;-83
2023/08/23 01:23:07;;;;;;;5.37;3.93;;;;;;;;;;5058401;22;21010;-77
2023/08/23 01:25:33;;;;;;;4.57;3.80;;;;;;;;;;5038039;28;20453;-77
2023/08/23 01:27:59;;;;;;;4.40;3.88;;;;;;;;;;5047739;28;20393;-77
2023/08/23 01:30:27;;;;;;;5.70;4.00;;;;;;;;;;5044031;28;20498;-77
2023/08/23 01:32:58;;;;;;;5.90;4.00;;;;;;;;;;5008604;28;20912;-78
2023/08/23 01:35:31;;;;;;;6.05;3.92;;;;;;;;;;5024830;28;20406;-77
2023/08/23 01:37:58;;;;;;;5.60;4.35;;;;;;;;;;5025731;28;20399;-77
2023/08/23 01:40:25;;;;;;;5.45;4.57;;;;;;;;;;5023987;28;20991;-77
2023/08/23 01:42:52;;;;;;;6.35;4.80;;;;;;;;;;5023263;28;20938;-77
2023/08/23 01:45:19;;;;;;;5.63;4.65;;;;;;;;;;5033051;28;20407;-77
2023/08/23 01:47:45;;;;;;;5.13;4.63;;;;;;;;;;5008093;28;20485;-77
2023/08/23 01:50:12;;;;;;;5.27;4.77;;;;;;;;;;5023971;28;21253;-77
2023/08/23 01:52:38;;;;;;;6.22;5.15;;;;;;;;;;5019383;28;20436;-77
2023/08/23 01:55:04;;;;;;;5.67;5.00;;;;;;;;;;5022300;28;20866;-77
2023/08/23 01:57:30;;;;;;;5.60;4.60;;;;;;;;;;5010176;28;20406;-77
2023/08/23 01:59:57;;;;;;;5.40;4.90;;;;;;;;;;5021248;28;20439;-78
2023/08/23 02:02:23;;;;;;;6.50;5.32;;;;;;;;;;5025051;28;20398;-77
2023/08/23 02:04:49;;;;;;;5.93;5.32;;;;;;;;;;5024690;28;20407;-78
2023/08/23 02:07:15;;;;;;;6.70;5.22;;;;;;;;;;5022130;28;20399;-78
2023/08/23 02:09:41;;;;;;;5.70;5.10;;;;;;;;;;5026761;28;20883;-78
2023/08/23 02:12:08;;;;;;;5.82;5.00;;;;;;;;;;5023938;28;20460;-78
2023/08/23 02:14:34;;;;;;;6.60;4.70;;;;;;;;;;5006299;28;20429;-77
2023/08/23 02:17:01;;;;;;;5.47;4.70;;;;;;;;;;5008600;28;20399;-78
2023/08/23 02:19:27;;;;;;;6.53;4.30;;;;;;;;;;5016676;28;20387;-78
2023/08/23 02:21:53;;;;;;;6.18;4.50;;;;;;;;;;5023569;28;20519;-77
2023/08/23 02:24:19;;;;;;;5.63;4.53;;;;;;;;;;5019399;28;20468;-78
2023/08/23 02:26:45;;;;;;;6.63;4.57;;;;;;;;;;5006006;28;20943;-78
2023/08/23 02:29:13;;;;;;;5.38;4.60;;;;;;;;;;5028105;28;20485;-78
2023/08/23 02:31:39;;;;;;;5.10;4.70;;;;;;;;;;5027365;28;20822;-78
2023/08/23 02:34:06;;;;;;;7.07;5.45;;;;;;;;;;5017449;28;20400;-77
2023/08/23 02:36:35;;;;;;;7.00;5.80;;;;;;;;;;5025834;28;20462;-78
2023/08/23 02:39:01;;;;;;;6.07;5.20;;;;;;;;;;5017920;28;20395;-77
2023/08/23 02:41:27;;;;;;;5.50;5.00;;;;;;;;;;5028069;28;20496;-78
2023/08/23 02:43:54;;;;;;;6.53;5.78;;;;;;;;;;5026118;28;20481;-77
2023/08/23 02:46:20;;;;;;;6.47;5.88;;;;;;;;;;5027635;28;20422;-78
2023/08/23 02:48:46;;;;;;;6.40;5.80;;;;;;;;;;5023115;28;20403;-77
2023/08/23 02:51:12;;;;;;;7.10;6.40;;;;;;;;;;5026228;28;20403;-78
2023/08/23 02:53:39;;;;;;;7.47;5.65;;;;;;;;;;5024045;28;20436;-78
2023/08/23 02:56:05;;;;;;;5.40;4.90;;;;;;;;;;5021054;28;20399;-78
2023/08/23 02:58:31;;;;;;;5.45;4.45;;;;;;;;;;5023994;28;20472;-78
2023/08/23 03:00:57;;;;;;;6.05;4.80;;;;;;;;;;5025654;28;20441;-78
2023/08/23 03:03:24;;;;;;;6.80;6.10;;;;;;;;;;5011048;28;20416;-77
2023/08/23 03:05:55;;;;;;;6.70;6.10;;;;;;;;;;5032116;28;20862;-77
2023/08/23 03:08:21;;;;;;;6.88;5.90;;;;;;;;;;5025952;28;20421;-77
2023/08/23 03:10:48;;;;;;;6.63;5.93;;;;;;;;;;5005122;28;20406;-77
2023/08/23 03:13:14;;;;;;;6.35;5.32;;;;;;;;;;5023617;28;20399;-78
2023/08/23 03:15:40;;;;;;;6.47;5.18;;;;;;;;;;5024194;28;20421;-77
2023/08/23 03:18:07;;;;;;;5.90;5.07;;;;;;;;;;5017136;28;20429;-77
2023/08/23 03:20:33;;;;;;;6.47;5.63;;;;;;;;;;5012826;28;20422;-77
2023/08/23 03:22:59;;;;;;;7.75;7.05;;;;;;;;;;5008715;28;20419;-77
2023/08/23 03:25:27;;;;;;;10.07;8.15;;;;;;;;;;5007342;28;20476;-77
2023/08/23 03:27:53;;;;;;;9.40;8.40;;;;;;;;;;5020184;28;20896;-77
2023/08/23 03:30:19;;;;;;;8.70;8.00;;;;;;;;;;5011484;28;20418;-77
2023/08/23 03:32:46;;;;;;;8.60;7.80;;;;;;;;;;5023038;28;20403;-77
2023/08/23 03:35:12;;;;;;;8.60;7.78;;;;;;;;;;5023685;28;20455;-77
2023/08/23 03:37:38;;;;;;;8.50;7.80;;;;;;;;;;5032868;28;20958;-77
2023/08/23 03:40:04;;;;;;;8.35;7.60;;;;;;;;;;5032647;28;20481;-78
2023/08/23 03:42:31;;;;;;;8.77;7.95;;;;;;;;;;5011389;28;20446;-78
2023/08/23 03:44:58;;;;;;;9.20;8.30;;;;;;;;;;5027664;28;20766;-77
2023/08/23 03:47:24;;;;;;;9.75;8.75;;;;;;;;;;5024284;28;20419;-77
2023/08/23 03:49:50;;;;;;;10.52;9.52;;;;;;;;;;5022889;28;20754;-77
2023/08/23 03:52:16;;;;;;;10.50;9.37;;;;;;;;;;5024810;28;20785;-77
2023/08/23 03:54:42;;;;;;;10.00;9.10;;;;;;;;;;5022335;28;20407;-78
2023/08/23 03:57:09;;;;;;;10.68;9.40;;;;;;;;;;5019784;28;20558;-78
2023/08/23 03:59:35;;;;;;;9.68;8.68;;;;;;;;;;5029321;28;20478;-78
2023/08/23 04:02:01;;;;;;;10.23;8.80;;;;;;;;;;5023827;28;20437;-78
2023/08/23 04:04:27;;;;;;;9.52;8.52;;;;;;;;;;5013498;28;20902;-78
2023/08/23 04:06:53;;;;;;;9.80;8.90;;;;;;;;;;5013665;28;20391;-78
2023/08/23 04:09:19;;;;;;;9.25;8.38;;;;;;;;;;5029400;28;20418;-78
2023/08/23 04:11:45;;;;;;;9.10;8.30;;;;;;;;;;5028903;28;20469;-78
2023/08/23 04:14:12;;;;;;;9.20;8.40;;;;;;;;;;5030030;28;20407;-78
2023/08/23 04:16:38;;;;;;;9.80;8.90;;;;;;;;;;5012604;28;20790;-78
2023/08/23 04:19:04;;;;;;;9.18;8.27;;;;;;;;;;5013550;28;20754;-78
2023/08/23 04:21:30;;;;;;;8.80;7.93;;;;;;;;;;5023744;28;20419;-78
2023/08/23 04:23:56;;;;;;;8.77;7.93;;;;;;;;;;4995268;28;20492;-79
2023/08/23 04:26:23;;;;;;;7.70;6.80;;;;;;;;;;5028449;28;20410;-78
2023/08/23 04:28:49;;;;;;;9.37;8.57;;;;;;;;;;5027414;28;20401;-78
2023/08/23 04:31:15;;;;;;;9.80;9.00;;;;;;;;;;5023284;28;20926;-79
2023/08/23 04:33:48;;;;;;;11.40;9.13;;;;;;;;;;5027528;28;20406;-78
2023/08/23 04:36:15;;;;;;;11.80;9.40;;;;;;;;;;5028055;28;20809;-78
2023/08/23 04:38:41;;;;;;;10.25;9.35;;;;;;;;;;5011145;28;20421;-78
2023/08/23 04:41:08;;;;;;;10.25;9.27;;;;;;;;;;5011425;28;20399;-78
2023/08/23 04:43:34;;;;;;;10.55;9.50;;;;;;;;;;5027616;28;20409;-78
2023/08/23 04:46:06;;;;;;;9.90;8.70;;;;;;;;;;5012000;28;20476;-78
2023/08/23 04:48:32;;;;;;;11.25;10.25;;;;;;;;;;5042978;28;20809;-79
2023/08/23 04:50:59;;;;;;;10.13;9.13;;;;;;;;;;5013496;28;21045;-78
2023/08/23 04:53:26;;;;;;;10.48;9.57;;;;;;;;;;5010838;28;20407;-78
2023/08/23 04:55:57;;;;;;;10.20;9.30;;;;;;;;;;5029388;28;20395;-78
2023/08/23 04:58:27;;;;;;;10.82;9.82;;;;;;;;;;5030668;28;20399;-78
2023/08/23 05:00:55;;;;;;;10.55;9.55;;;;;;;;;;5029412;28;20409;-78
2023/08/23 05:03:21;;;;;;;10.50;9.35;;;;;;;;;;5033736;28;20390;-78
2023/08/23 05:05:47;;;;;;;10.53;9.63;;;;;;;;;;5026103;28;20491;-78
2023/08/23 05:08:14;;;;;;;10.50;9.50;;;;;;;;;;5040812;28;20406;-78
2023/08/23 05:10:40;;;;;;;11.05;9.82;;;;;;;;;;5030902;28;20423;-77
2023/08/23 05:13:07;;;;;;;10.43;9.32;;;;;;;;;;5011162;28;20396;-78
2023/08/23 05:15:34;;;;;;;10.68;9.60;;;;;;;;;;5033733;28;20490;-78
2023/08/23 05:18:01;;;;;;;10.60;9.60;;;;;;;;;;5007495;28;20832;-74
2023/08/23 05:20:27;;;;;;;10.48;9.48;;;;;;;;;;5033267;28;20551;-77
2023/08/23 05:22:53;;;;;;;10.98;9.80;;;;;;;;;;5027266;28;20764;-76
2023/08/23 05:25:19;;;;;;;10.02;9.07;;;;;;;;;;5028208;28;20395;-76
2023/08/23 05:27:46;;;;;;;9.38;8.48;;;;;;;;;;5028199;28;20391;-74
2023/08/23 05:30:12;;;;;;;9.85;8.95;;;;;;;;;;5030808;28;20406;-75
2023/08/23 05:32:39;;;;;;;9.40;8.60;;;;;;;;;;5034237;28;20892;-74
2023/08/23 05:35:07;;;;;;;9.65;8.68;;;;;;;;;;5020402;28;20862;-76
2023/08/23 05:37:33;;;;;;;10.38;9.30;;;;;;;;;;5033082;28;20395;-76
2023/08/23 05:39:59;;;;;;;9.40;8.60;;;;;;;;;;5028027;28;20427;-76
2023/08/23 05:42:25;;;;;;;9.90;9.00;;;;;;;;;;5027967;28;20433;-76
2023/08/23 05:44:52;;;;;;;9.47;8.40;;;;;;;;;;5027565;28;20902;-76
2023/08/23 05:47:18;;;;;;;9.18;8.23;;;;;;;;;;5034337;28;20388;-77
2023/08/23 05:49:44;;;;;;;8.85;8.02;;;;;;;;;;5009422;28;20406;-76
2023/08/23 05:52:10;;;;;;;9.27;8.23;;;;;;;;;;5027393;28;20407;-76
2023/08/23 05:54:36;;;;;;;8.40;7.60;;;;;;;;;;5019833;28;20409;-76
2023/08/23 05:57:04;;;;;;;10.25;7.97;;;;;;;;;;5024929;28;20395;-77
2023/08/23 05:59:30;;;;;;;7.88;7.10;;;;;;;;;;5026910;28;20407;-76
2023/08/23 06:01:57;;;;;;;8.83;7.20;;;;;;;;;;5027753;28;20780;-76
2023/08/23 06:04:23;;;;;;;7.40;6.65;;;;;;;;;;5028577;28;20395;-76
2023/08/23 06:06:49;;;;;;;6.43;5.78;;;;;;;;;;5031214;28;20400;-76
2023/08/23 06:09:17;;;;;;;6.78;5.95;;;;;;;;;;5020434;28;20414;-76
2023/08/23 06:11:43;;;;;;;7.15;5.88;;;;;;;;;;5012944;28;20416;-76
2023/08/23 06:14:20;;;;;;;6.10;5.50;;;;;;;;;;5025423;28;20391;-76
2023/08/23 06:16:46;;;;;;;7.13;5.28;;;;;;;;;;5019681;28;20624;-77
2023/08/23 06:19:12;;;;;;;6.15;5.20;;;;;;;;;;4994923;28;20493;-76
2023/08/23 06:21:40;;;;;;;7.50;6.80;;;;;;;;;;5024919;28;20411;-76
2023/08/23 06:24:06;;;;;;;9.30;7.22;;;;;;;;;;5023793;28;20413;-76
2023/08/23 06:26:32;;;;;;;8.50;7.65;;;;;;;;;;5022984;28;20948;-76
2023/08/23 06:28:58;;;;;;;8.00;7.20;;;;;;;;;;5025584;28;20917;-76
2023/08/23 06:31:25;;;;;;;8.40;7.00;;;;;;;;;;5023040;28;20415;-76
2023/08/23 06:33:51;;;;;;;7.32;6.63;;;;;;;;;;5025743;28;20443;-76
2023/08/23 06:36:17;;;;;;;7.10;6.40;;;;;;;;;;5031316;28;20400;-76
2023/08/23 06:38:43;;;;;;;6.95;5.90;;;;;;;;;;5012548;28;20476;-77
2023/08/23 06:41:09;;;;;;;6.85;6.15;;;;;;;;;;5020922;28;20434;-78
2023/08/23 06:43:35;;;;;;;7.47;6.18;;;;;;;;;;5014438;28;20458;-75
2023/08/23 06:46:01;;;;;;;7.07;5.70;;;;;;;;;;5029718;28;20490;-76
2023/08/23 06:48:28;;;;;;;6.90;5.82;;;;;;;;;;5018480;28;20517;-76
2023/08/23 06:50:54;;;;;;;6.95;6.03;;;;;;;;;;5021778;28;20548;-76
2023/08/23 06:53:20;;;;;;;8.80;6.03;;;;;;;;;;5019089;28;20813;-76
2023/08/23 06:55:47;;;;;;;6.75;6.10;;;;;;;;;;5021047;28;20407;-76
2023/08/23 06:58:15;;;;;;;5.70;5.13;;;;;;;;;;5023622;28;20407;-76
2023/08/23 07:00:41;;;;;;;7.37;6.20;;;;;;;;;;5026371;28;20583;-76
2023/08/23 07:03:09;;;;;;;6.95;6.10;;;;;;;;;;5016710;28;20404;-75
2023/08/23 07:05:35;;;;;;;6.97;6.28;;;;;;;;;;5030820;28;20452;-75
2023/08/23 07:08:02;;;;;;;10.35;6.90;;;;;;;;;;5032079;28;20403;-76
2023/08/23 07:10:29;;;;;;;8.70;7.30;;;;;;;;;;5018974;28;20410;-75
2023/08/23 07:12:55;;;;;;;9.10;8.05;;;;;;;;;;5024477;28;20403;-76
2023/08/23 07:15:21;;;;;;;9.73;8.32;;;;;;;;;;5024176;28;20394;-76
2023/08/23 07:17:49;;;;;;;10.63;8.48;;;;;;;;;;5025853;28;20401;-76
2023/08/23 07:20:15;;;;;;;12.93;8.50;;;;;;;;;;5031378;28;20288;-76
2023/08/23 07:22:42;;;;;;;7.80;7.00;;;;;;;;;;5071281;22;20238;-79
2023/08/23 07:25:08;;;;;;;10.40;8.50;;;;;;;;;;5075077;28;20567;-79
2023/08/23 07:27:36;;;;;;;10.20;9.10;;;;;;;;;;5074329;28;20271;-79
2023/08/23 07:30:03;;;;;;;8.90;8.00;;;;;;;;;;5071716;28;20226;-79
2023/08/23 07:32:32;;;;;;;8.57;6.70;;;;;;;;;;5055777;28;20691;-79
2023/08/23 07:35:00;;;;;;;7.50;6.67;;;;;;;;;;5048764;28;20231;-79
2023/08/23 07:37:27;;;;;;;7.53;6.30;;;;;;;;;;5069066;28;20264;-79
2023/08/23 07:39:53;;;;;;;11.57;6.13;;;;;;;;;;5051387;28;20178;-79
2023/08/23 07:42:19;;;;;;;9.03;6.27;;;;;;;;;;5057726;28;20208;-79
2023/08/23 07:44:46;;;;;;;9.60;7.10;;;;;;;;;;5056498;28;20182;-79
2023/08/23 07:47:12;;;;;;;8.10;5.77;;;;;;;;;;5054305;28;20197;-79
2023/08/23 07:49:38;;;;;;;8.10;5.50;;;;;;;;;;5058321;28;20185;-79
2023/08/23 07:52:04;;;;;;;9.37;7.27;;;;;;;;;;5067117;28;20213;-79
2023/08/23 07:54:31;;;;;;;9.97;7.03;;;;;;;;;;5060635;28;20242;-79
2023/08/23 07:56:57;;;;;;;8.73;7.27;;;;;;;;;;5065092;28;20189;-79
2023/08/23 07:59:23;;;;;;;9.90;7.10;;;;;;;;;;5063774;28;20183;-79
2023/08/23 08:01:49;;;;;;;10.77;7.40;;;;;;;;;;5063984;28;20203;-79
2023/08/23 08:04:15;;;;;;;10.10;6.90;;;;;;;;;;5055920;28;20183;-79
2023/08/23 08:06:42;;;;;;;9.67;7.17;;;;;;;;;;5058752;28;20497;-79
2023/08/23 08:09:08;;;;;;;10.00;7.77;;;;;;;;;;5058397;28;20779;-79
2023/08/23 08:11:34;;;;;;;9.43;7.20;;;;;;;;;;5060714;28;20618;-79
2023/08/23 08:14:00;;;;;;;7.33;6.40;;;;;;;;;;5065165;28;20186;-79
2023/08/23 08:16:26;;;;;;;10.70;7.13;;;;;;;;;;5041484;28;20183;-79
2023/08/23 08:18:52;;;;;;;11.03;7.87;;;;;;;;;;5069797;28;20194;-79
2023/08/23 08:21:19;;;;;;;9.13;7.27;;;;;;;;;;5078976;28;20290;-79
2023/08/23 08:23:48;;;;;;;9.63;7.00;;;;;;;;;;5075117;28;20181;-79
2023/08/23 08:26:15;;;;;;;8.13;7.07;;;;;;;;;;5080845;28;20195;-79
2023/08/23 08:28:45;;;;;;;8.57;6.77;;;;;;;;;;5062643;28;20183;-79
2023/08/23 08:31:13;;;;;;;12.33;7.37;;;;;;;;;;5048312;28;20218;-79
2023/08/23 08:33:39;;;;;;;12.80;7.07;;;;;;;;;;5050331;28;20263;-79
2023/08/23 08:36:06;;;;;;;8.37;6.50;;;;;;;;;;5051827;28;20546;-79
2023/08/23 08:38:32;;;;;;;12.00;6.60;;;;;;;;;;5051288;28;20185;-79
2023/08/23 08:40:58;;;;;;;7.53;5.63;;;;;;;;;;5057273;28;20186;-79
2023/08/23 08:43:24;;;;;;;9.53;6.07;;;;;;;;;;5053117;28;20187;-79
2023/08/23 08:45:50;;;;;;;8.53;5.57;;;;;;;;;;5051078;28;20185;-79
2023/08/23 08:48:17;;;;;;;7.13;5.40;;;;;;;;;;5051385;28;20194;-79
2023/08/23 08:50:44;;;;;;;7.93;5.37;;;;;;;;;;5049413;28;20204;-79
2023/08/23 08:53:15;;;;;;;7.10;5.30;;;;;;;;;;5052184;28;20680;-79
2023/08/23 08:55:42;;;;;;;9.10;5.33;;;;;;;;;;5050570;28;20187;-79
2023/08/23 08:58:09;;;;;;;7.47;5.90;;;;;;;;;;5051522;28;20216;-79
2023/08/23 09:00:35;;;;;;;8.97;5.57;;;;;;;;;;5046306;28;20273;-79
2023/08/23 09:03:02;;;;;;;10.57;6.43;;;;;;;;;;5050665;28;20206;-79
2023/08/23 09:05:29;;;;;;;8.10;5.30;;;;;;;;;;5049876;28;20186;-79
2023/08/23 09:07:56;;;;;;;8.37;5.33;;;;;;;;;;5050935;28;20686;-79
2023/08/23 09:10:24;;;;;;;6.27;5.40;;;;;;;;;;5044904;28;20728;-79
2023/08/23 09:12:50;;;;;;;6.60;5.10;;;;;;;;;;5054321;28;20722;-79
2023/08/23 09:15:23;;;;;;;6.30;4.40;;;;;;;;;;5051221;28;20234;-79
2023/08/23 09:17:51;;;;;;;6.53;4.87;;;;;;;;;;5034886;28;20269;-79
2023/08/23 09:20:18;;;;;;;7.23;4.63;;;;;;;;;;5051971;28;20244;-79
2023/08/23 09:22:44;;;;;;;6.53;4.93;;;;;;;;;;5049483;28;20205;-79
2023/08/23 09:25:10;;;;;;;7.53;4.43;;;;;;;;;;5050506;28;20239;-79
2023/08/23 09:27:37;;;;;;;8.47;4.50;;;;;;;;;;5048994;28;20182;-79
2023/08/23 09:30:04;;;;;;;5.73;4.30;;;;;;;;;;5052012;28;20185;-79
2023/08/23 09:32:30;;;;;;;8.30;4.40;;;;;;;;;;5052052;28;20220;-79
2023/08/23 09:34:57;;;;;;;7.40;4.30;;;;;;;;;;5051561;28;20178;-79
2023/08/23 09:37:23;;;;;;;6.70;3.97;;;;;;;;;;5047629;28;20590;-79
2023/08/23 09:39:49;;;;;;;6.77;3.90;;;;;;;;;;5054678;28;20244;-79
2023/08/23 09:42:16;;;;;;;6.93;3.80;;;;;;;;;;5053473;28;20631;-79
2023/08/23 09:44:46;;;;;;;6.13;3.43;;;;;;;;;;5050541;28;20251;-79
2023/08/23 09:47:16;;;;;;;3.70;3.40;;;;;;;;;;5050682;28;20193;-79
2023/08/23 09:49:43;;;;;;;4.03;3.53;;;;;;;;;;5053853;28;20178;-79
2023/08/23 09:52:11;;;;;;;6.93;3.60;;;;;;;;;;5047501;28;20205;-79
2023/08/23 09:54:56;;;;;;;4.87;3.43;;;;;;;;;;5048393;28;20671;-79
2023/08/23 09:57:22;;;;;;;5.87;4.10;;;;;;;;;;5063923;28;20264;-79
2023/08/23 09:59:49;;;;;;;5.53;3.53;;;;;;;;;;5051028;28;20197;-79
2023/08/23 10:02:18;;;;;;;4.63;3.57;;;;;;;;;;5049016;28;20220;-79
2023/08/23 10:04:45;;;;;;;4.37;3.67;;;;;;;;;;5053047;28;20212;-79
2023/08/23 10:07:15;;;;;;;6.40;3.40;;;;;;;;;;5049194;28;20197;-79
2023/08/23 10:09:41;;;;;;;5.20;3.50;;;;;;;;;;5050499;28;20184;-79
2023/08/23 10:12:11;;;;;;;5.67;3.63;;;;;;;;;;5060742;28;20225;-79
2023/08/23 10:14:39;;;;;;;5.70;3.37;;;;;;;;;;5051355;28;20219;-79
2023/08/23 10:17:07;;;;;;;4.47;3.10;;;;;;;;;;5073021;28;20185;-79
2023/08/23 10:19:33;;;;;;;5.10;3.50;;;;;;;;;;5052000;28;20174;-79
2023/08/23 10:22:00;;;;;;;8.27;3.50;;;;;;;;;;5055283;28;20226;-79
2023/08/23 10:24:29;;;;;;;5.37;3.70;;;;;;;;;;5050873;28;20199;-79
2023/08/23 10:26:55;;;;;;;4.87;3.53;;;;;;;;;;5051874;28;20643;-79
2023/08/23 10:29:27;;;;;;;4.33;3.63;;;;;;;;;;5055971;28;20217;-79
2023/08/23 10:31:54;;;;;;;5.80;3.60;;;;;;;;;;5048360;28;20275;-79
2023/08/23 10:34:29;;;;;;;3.87;3.40;;;;;;;;;;5058272;28;20305;-79
2023/08/23 10:36:55;;;;;;;5.37;3.70;;;;;;;;;;5047174;28;20181;-79
2023/08/23 10:39:22;;;;;;;5.93;4.00;;;;;;;;;;5054015;28;20190;-79
2023/08/23 10:41:52;;;;;;;4.47;3.70;;;;;;;;;;5050600;28;20850;-79
2023/08/23 10:44:19;;;;;;;5.87;3.90;;;;;;;;;;5050008;28;20212;-79
2023/08/23 10:46:45;;;;;;;4.53;3.73;;;;;;;;;;5050573;28;20544;-79
2023/08/23 10:49:16;;;;;;;4.30;3.80;;;;;;;;;;5050462;28;20200;-79
2023/08/23 10:51:42;;;;;;;6.57;3.67;;;;;;;;;;5055468;28;20220;-79
2023/08/23 10:54:11;;;;;;;7.83;4.07;;;;;;;;;;5049352;28;20653;-79
2023/08/23 10:56:38;;;;;;;5.50;3.60;;;;;;;;;;5065184;28;20187;-79
2023/08/23 10:59:06;;;;;;;4.47;3.70;;;;;;;;;;5049671;28;20178;-79
2023/08/23 11:01:33;;;;;;;6.53;3.70;;;;;;;;;;5044794;28;20289;-79
2023/08/23 11:03:59;;;;;;;5.37;3.57;;;;;;;;;;5049760;28;20669;-79
2023/08/23 11:06:27;;;;;;;6.63;3.70;;;;;;;;;;5049634;28;20183;-79
2023/08/23 11:08:53;;;;;;;5.73;3.90;;;;;;;;;;5053478;28;20252;-79
2023/08/23 11:11:19;;;;;;;6.03;4.10;;;;;;;;;;5051634;28;20894;-79
2023/08/23 11:13:48;;;;;;;5.53;3.27;;;;;;;;;;5054893;28;20270;-79
2023/08/23 11:16:14;;;;;;;4.77;3.57;;;;;;;;;;5050681;28;20178;-79
2023/08/23 11:18:40;;;;;;;5.23;3.70;;;;;;;;;;5049451;28;20276;-79
2023/08/23 11:21:06;;;;;;;4.40;3.60;;;;;;;;;;5049153;28;20217;-80
2023/08/23 11:23:36;;;;;;;4.73;3.37;;;;;;;;;;5055500;28;20187;-79
2023/08/23 11:26:03;;;;;;;5.53;3.50;;;;;;;;;;5050566;28;20241;-80
2023/08/23 11:28:30;;;;;;;5.27;3.30;;;;;;;;;;5031193;28;20577;-79
2023/08/23 11:30:59;;;;;;;5.23;3.67;;;;;;;;;;5054173;28;20200;-81
2023/08/23 11:33:26;;;;;;;4.30;3.30;;;;;;;;;;5035232;28;20181;-81
2023/08/23 11:35:52;;;;;;;5.10;3.33;;;;;;;;;;5049019;28;20181;-82
2023/08/23 11:38:18;;;;;;;4.53;3.53;;;;;;;;;;5050402;28;20791;-81
2023/08/23 11:40:45;;;;;;;4.87;3.30;;;;;;;;;;5052663;28;20198;-80
2023/08/23 11:43:14;;;;;;;4.03;3.33;;;;;;;;;;5037061;28;20553;-81
2023/08/23 11:45:41;;;;;;;4.80;3.37;;;;;;;;;;5055109;28;20311;-81
2023/08/23 11:48:07;;;;;;;5.30;3.30;;;;;;;;;;5035483;28;20193;-80
2023/08/23 11:50:34;;;;;;;4.17;3.30;;;;;;;;;;5052242;28;20218;-81
2023/08/23 11:53:03;;;;;;;4.67;3.40;;;;;;;;;;5055963;28;20207;-81
2023/08/23 11:55:29;;;;;;;6.03;3.43;;;;;;;;;;5052085;28;20180;-81
2023/08/23 11:57:55;;;;;;;3.93;3.20;;;;;;;;;;5050065;28;20530;-81
2023/08/23 12:00:22;;;;;;;4.17;3.10;;;;;;;;;;5026136;28;20254;-81
2023/08/23 12:02:48;;;;;;;4.23;3.20;;;;;;;;;;5050848;28;20199;-82
2023/08/23 12:05:15;;;;;;;4.80;3.30;;;;;;;;;;5043093;28;20209;-82
2023/08/23 12:07:41;;;;;;;5.23;3.23;;;;;;;;;;5066542;28;20529;-83
2023/08/23 12:10:11;;;;;;;6.57;3.57;;;;;;;;;;5059810;28;20198;-83
2023/08/23 12:12:37;;;;;;;4.77;3.40;;;;;;;;;;5054391;28;20220;-82
2023/08/23 12:15:07;;;;;;;4.07;3.20;;;;;;;;;;5052522;28;20189;-82
2023/08/23 12:17:34;;;;;;;4.13;3.07;;;;;;;;;;5072875;28;20181;-82
2023/08/23 12:20:00;;;;;;;5.90;3.10;;;;;;;;;;5068531;28;20205;-82
2023/08/23 12:22:26;;;;;;;3.10;2.70;;;;;;;;;;5046275;28;20218;-82
2023/08/23 12:24:52;;;;;;;4.67;2.77;;;;;;;;;;5044136;28;20204;-82
2023/08/23 12:27:19;;;;;;;3.40;2.97;;;;;;;;;;5056935;28;20642;-82
2023/08/23 12:29:45;;;;;;;7.37;3.10;;;;;;;;;;5055759;28;20203;-82
2023/08/23 12:32:11;;;;;;;5.20;2.97;;;;;;;;;;5059791;28;20309;-82
2023/08/23 12:34:37;;;;;;;5.63;3.20;;;;;;;;;;5037374;28;20304;-82
2023/08/23 12:37:03;;;;;;;4.17;2.77;;;;;;;;;;5043828;28;20197;-82
2023/08/23 12:39:30;;;;;;;5.73;2.70;;;;;;;;;;5052751;28;20186;-82
2023/08/23 12:41:56;;;;;;;2.60;2.27;;;;;;;;;;5053472;28;20245;-83
2023/08/23 12:44:23;;;;;;;6.97;2.50;;;;;;;;;;5051381;28;20203;-83
2023/08/23 12:46:49;;;;;;;5.83;2.60;;;;;;;;;;5051418;28;20185;-82
2023/08/23 12:49:15;;;;;;;4.83;2.53;;;;;;;;;;5051319;28;20179;-83
2023/08/23 12:51:43;;;;;;;4.90;2.50;;;;;;;;;;5053486;28;20270;-83
2023/08/23 12:54:09;;;;;;;4.77;2.50;;;;;;;;;;5036450;28;20258;-83
2023/08/23 12:56:36;;;;;;;5.33;2.33;;;;;;;;;;5053856;28;20175;-86
2023/08/23 12:59:03;;;;;;;3.60;2.30;;;;;;;;;;5057499;28;20259;-82
2023/08/23 13:01:34;;;;;;;3.10;2.43;;;;;;;;;;5054701;28;20282;-82
2023/08/23 13:04:00;;;;;;;3.20;2.40;;;;;;;;;;5049922;28;20188;-82
2023/08/23 13:06:26;;;;;;;4.37;2.10;;;;;;;;;;5035835;28;20196;-82
2023/08/23 13:08:52;;;;;;;5.07;2.20;;;;;;;;;;5056656;28;20188;-83
2023/08/23 13:11:19;;;;;;;5.83;2.00;;;;;;;;;;5053001;28;20652;-83
2023/08/23 13:13:47;;;;;;;2.73;2.00;;;;;;;;;;5055517;28;20574;-83
2023/08/23 13:16:14;;;;;;;2.83;1.92;;;;;;;;;;5053419;28;20175;-83
2023/08/23 13:18:40;;;;;;;5.63;1.95;;;;;;;;;;5050006;28;20197;-86
2023/08/23 13:21:07;;;;;;;3.30;1.92;;;;;;;;;;5058487;28;20192;-82
2023/08/23 13:23:34;;;;;;;3.50;2.10;;;;;;;;;;5059009;22;20224;-79
2023/08/23 13:26:01;;;;;;;2.20;1.83;;;;;;;;;;5053302;28;20179;-79
2023/08/23 13:28:28;;;;;;;3.40;2.13;;;;;;;;;;5050738;28;20189;-78
2023/08/23 13:30:54;;;;;;;3.60;1.80;;;;;;;;;;5046081;28;20218;-79
2023/08/23 13:33:20;;;;;;;2.90;1.60;;;;;;;;;;5035916;28;20207;-78
2023/08/23 13:35:46;;;;;;;3.22;2.00;;;;;;;;;;5040362;28;20277;-79
2023/08/23 13:38:14;;;;;;;3.63;1.80;;;;;;;;;;5032732;28;20183;-78
2023/08/23 13:40:40;;;;;;;3.90;1.77;;;;;;;;;;5043761;28;20403;-78
2023/08/23 13:43:07;;;;;;;2.17;1.80;;;;;;;;;;5047936;28;20220;-80
2023/08/23 13:45:33;;;;;;;3.20;1.50;;;;;;;;;;5042151;28;20198;-80
2023/08/23 13:47:59;;;;;;;4.60;1.98;;;;;;;;;;5031380;28;20182;-82
2023/08/23 13:50:25;;;;;;;5.38;1.90;;;;;;;;;;5044717;28;20687;-80
2023/08/23 13:52:51;;;;;;;2.85;1.55;;;;;;;;;;5032443;28;20209;-80
2023/08/23 13:55:17;;;;;;;2.38;1.80;;;;;;;;;;5030670;28;20178;-80
2023/08/23 13:57:44;;;;;;;2.63;1.63;;;;;;;;;;5027379;28;20179;-80
2023/08/23 14:00:10;;;;;;;5.25;1.70;;;;;;;;;;5038786;28;20555;-80
2023/08/23 14:02:38;;;;;;;1.95;1.80;;;;;;;;;;5038829;28;20305;-80
2023/08/23 14:05:04;;;;;;;5.22;1.60;;;;;;;;;;5039732;28;20186;-80
2023/08/23 14:07:30;;;;;;;3.17;1.55;;;;;;;;;;5030731;28;20183;-80
2023/08/23 14:09:56;;;;;;;2.53;1.65;;;;;;;;;;5023953;28;20197;-80
2023/08/23 14:12:23;;;;;;;2.42;1.50;;;;;;;;;;5035593;28;20214;-81
2023/08/23 14:14:49;;;;;;;2.50;1.67;;;;;;;;;;5042866;28;20175;-80
2023/08/23 14:17:15;;;;;;;2.53;1.50;;;;;;;;;;5018044;28;20202;-82
2023/08/23 14:19:46;;;;;;;2.55;1.70;;;;;;;;;;5020718;28;20202;-80
2023/08/23 14:22:12;;;;;;;1.63;1.52;;;;;;;;;;5033041;28;20222;-81
2023/08/23 14:24:39;;;;;;;3.58;1.73;;;;;;;;;;5030762;28;20191;-81
2023/08/23 14:27:05;;;;;;;2.58;1.60;;;;;;;;;;5036591;28;20190;-80
2023/08/23 14:29:31;;;;;;;2.22;1.40;;;;;;;;;;5051899;28;20182;-80
2023/08/23 14:31:58;;;;;;;1.70;1.60;;;;;;;;;;5062349;28;20216;-80
2023/08/23 14:34:24;;;;;;;1.80;1.65;;;;;;;;;;5051028;28;20191;-80
2023/08/23 14:36:50;;;;;;;2.75;1.50;;;;;;;;;;5048449;28;20178;-80
2023/08/23 14:39:16;;;;;;;2.50;1.90;;;;;;;;;;5035666;28;20190;-80